sensor_id;sensor_type;location;lat;lon;timestamp;pressure;altitude;pressure_sealevel;temperature;humidity
68301;BME280;55146;47.468;18.806;2023-02-28T00:00:42;101126.53;;;1.51;60.73
68301;BME280;55146;47.468;18.806;2023-02-28T00:03:08;101135.13;;;1.54;60.86
68301;BME280;55146;47.468;18.806;2023-02-28T00:05:34;101129.34;;;1.57;60.47
68301;BME280;55146;47.468;18.806;2023-02-28T00:07:59;101138.75;;;1.61;59.83
68301;BME280;55146;47.468;18.806;2023-02-28T00:10:27;101133.34;;;1.61;59.53
68301;BME280;55146;47.468;18.806;2023-02-28T00:12:55;101135.88;;;1.63;60.72
68301;BME280;55146;47.468;18.806;2023-02-28T00:15:22;101137.28;;;1.59;60.88
68301;BME280;55146;47.468;18.806;2023-02-28T00:17:48;101140.19;;;1.57;60.58
68301;BME280;55146;47.468;18.806;2023-02-28T00:20:13;101141.22;;;1.56;60.21
68301;BME280;55146;47.468;18.806;2023-02-28T00:22:41;101141.03;;;1.58;61.79
68301;BME280;55146;47.468;18.806;2023-02-28T00:25:07;101141.22;;;1.56;61.20
68301;BME280;55146;47.468;18.806;2023-02-28T00:27:35;101144.84;;;1.63;61.13
68301;BME280;55146;47.468;18.806;2023-02-28T00:30:00;101141.94;;;1.65;62.02
68301;BME280;55146;47.468;18.806;2023-02-28T00:32:26;101152.97;;;1.63;61.93
68301;BME280;55146;47.468;18.806;2023-02-28T00:34:51;101151.56;;;1.68;62.40
68301;BME280;55146;47.468;18.806;2023-02-28T00:37:17;101156.13;;;1.67;63.09
68301;BME280;55146;47.468;18.806;2023-02-28T00:39:42;101157.28;;;1.73;62.74
68301;BME280;55146;47.468;18.806;2023-02-28T00:42:08;101160.62;;;1.75;62.43
68301;BME280;55146;47.468;18.806;2023-02-28T00:44:33;101153.91;;;1.71;62.47
68301;BME280;55146;47.468;18.806;2023-02-28T00:46:59;101165.19;;;1.74;63.13
68301;BME280;55146;47.468;18.806;2023-02-28T00:49:26;101160.16;;;1.71;64.04
68301;BME280;55146;47.468;18.806;2023-02-28T00:51:53;101163.31;;;1.75;64.15
68301;BME280;55146;47.468;18.806;2023-02-28T00:54:19;101164.56;;;1.72;64.41
68301;BME280;55146;47.468;18.806;2023-02-28T00:56:44;101161.63;;;1.74;64.80
68301;BME280;55146;47.468;18.806;2023-02-28T00:59:11;101166.03;;;1.75;64.84
68301;BME280;55146;47.468;18.806;2023-02-28T01:01:37;101159.78;;;1.74;65.05
68301;BME280;55146;47.468;18.806;2023-02-28T01:04:03;101170.84;;;1.73;65.31
68301;BME280;55146;47.468;18.806;2023-02-28T01:06:28;101161.19;;;1.70;65.09
68301;BME280;55146;47.468;18.806;2023-02-28T01:08:54;101166.22;;;1.73;64.93
68301;BME280;55146;47.468;18.806;2023-02-28T01:11:19;101166.22;;;1.73;64.89
68301;BME280;55146;47.468;18.806;2023-02-28T01:13:45;101163.91;;;1.70;65.21
68301;BME280;55146;47.468;18.806;2023-02-28T01:16:12;101166.44;;;1.72;65.39
68301;BME280;55146;47.468;18.806;2023-02-28T01:18:38;101163.66;;;1.65;65.40
68301;BME280;55146;47.468;18.806;2023-02-28T01:21:05;101159.44;;;1.62;65.51
68301;BME280;55146;47.468;18.806;2023-02-28T01:23:31;101168.41;;;1.63;65.85
68301;BME280;55146;47.468;18.806;2023-02-28T01:25:57;101160.28;;;1.63;66.30
68301;BME280;55146;47.468;18.806;2023-02-28T01:28:22;101165.87;;;1.61;66.40
68301;BME280;55146;47.468;18.806;2023-02-28T01:30:49;101163.81;;;1.63;66.59
68301;BME280;55146;47.468;18.806;2023-02-28T01:33:15;101161.56;;;1.67;66.67
68301;BME280;55146;47.468;18.806;2023-02-28T01:35:40;101161.56;;;1.67;66.88
68301;BME280;55146;47.468;18.806;2023-02-28T01:38:06;101155.94;;;1.69;67.14
68301;BME280;55146;47.468;18.806;2023-02-28T01:40:32;101153.25;;;1.69;67.44
68301;BME280;55146;47.468;18.806;2023-02-28T01:42:57;101148.00;;;1.67;67.37
68301;BME280;55146;47.468;18.806;2023-02-28T01:45:27;101153.44;;;1.67;67.24
68301;BME280;55146;47.468;18.806;2023-02-28T01:48:01;101159.06;;;1.66;67.30
68301;BME280;55146;47.468;18.806;2023-02-28T01:50:29;101159.50;;;1.69;67.14
68301;BME280;55146;47.468;18.806;2023-02-28T01:52:59;101160.75;;;1.67;67.02
68301;BME280;55146;47.468;18.806;2023-02-28T01:55:28;101160.34;;;1.70;67.25
68301;BME280;55146;47.468;18.806;2023-02-28T01:57:57;101159.69;;;1.68;67.43
68301;BME280;55146;47.468;18.806;2023-02-28T02:00:25;101155.69;;;1.63;67.19
68301;BME280;55146;47.468;18.806;2023-02-28T02:02:58;101155.87;;;1.62;67.17
68301;BME280;55146;47.468;18.806;2023-02-28T02:05:26;101154.84;;;1.63;67.23
68301;BME280;55146;47.468;18.806;2023-02-28T02:08:03;101155.44;;;1.58;67.86
68301;BME280;55146;47.468;18.806;2023-02-28T02:10:33;101153.81;;;1.64;68.05
68301;BME280;55146;47.468;18.806;2023-02-28T02:18:43;101156.34;;;1.66;67.97
68301;BME280;55146;47.468;18.806;2023-02-28T02:24:39;101153.62;;;1.66;68.16
68301;BME280;55146;47.468;18.806;2023-02-28T02:37:07;101155.50;;;1.65;67.92
68301;BME280;55146;47.468;18.806;2023-02-28T02:39:50;101151.94;;;1.65;67.88
68301;BME280;55146;47.468;18.806;2023-02-28T02:42:31;101155.50;;;1.65;67.66
68301;BME280;55146;47.468;18.806;2023-02-28T02:45:45;101148.97;;;1.59;67.61
68301;BME280;55146;47.468;18.806;2023-02-28T02:47:51;101152.91;;;1.57;67.51
68301;BME280;55146;47.468;18.806;2023-02-28T02:50:24;101153.06;;;1.55;67.67
68301;BME280;55146;47.468;18.806;2023-02-28T02:52:55;101149.53;;;1.55;67.23
68301;BME280;55146;47.468;18.806;2023-02-28T02:55:23;101152.22;;;1.55;67.14
68301;BME280;55146;47.468;18.806;2023-02-28T02:57:56;101156.63;;;1.56;67.13
68301;BME280;55146;47.468;18.806;2023-02-28T03:00:28;101162.06;;;1.56;66.80
68301;BME280;55146;47.468;18.806;2023-02-28T03:02:55;101166.28;;;1.58;66.89
68301;BME280;55146;47.468;18.806;2023-02-28T03:05:39;101157.75;;;1.61;66.49
68301;BME280;55146;47.468;18.806;2023-02-28T03:08:07;101158.59;;;1.62;66.70
68301;BME280;55146;47.468;18.806;2023-02-28T03:10:36;101165.59;;;1.56;66.92
68301;BME280;55146;47.468;18.806;2023-02-28T03:16:09;101161.22;;;1.55;67.21
68301;BME280;55146;47.468;18.806;2023-02-28T03:21:50;101166.19;;;1.52;66.25
68301;BME280;55146;47.468;18.806;2023-02-28T03:24:35;101168.22;;;1.50;66.10
68301;BME280;55146;47.468;18.806;2023-02-28T03:33:08;101168.22;;;1.50;67.64
68301;BME280;55146;47.468;18.806;2023-02-28T03:35:47;101168.72;;;1.53;67.40
68301;BME280;55146;47.468;18.806;2023-02-28T03:38:31;101168.91;;;1.52;67.76
68301;BME280;55146;47.468;18.806;2023-02-28T03:41:12;101170.94;;;1.50;67.87
68301;BME280;55146;47.468;18.806;2023-02-28T03:43:41;101159.91;;;1.51;68.09
68301;BME280;55146;47.468;18.806;2023-02-28T03:46:10;101171.59;;;1.52;68.53
68301;BME280;55146;47.468;18.806;2023-02-28T03:48:44;101161.88;;;1.57;68.50
68301;BME280;55146;47.468;18.806;2023-02-28T03:51:15;101173.75;;;1.56;68.47
68301;BME280;55146;47.468;18.806;2023-02-28T03:53:45;101167.12;;;1.59;68.92
68301;BME280;55146;47.468;18.806;2023-02-28T03:59:04;101167.88;;;1.53;68.89
68301;BME280;55146;47.468;18.806;2023-02-28T04:01:41;101165.59;;;1.56;69.17
68301;BME280;55146;47.468;18.806;2023-02-28T04:04:08;101161.88;;;1.57;69.09
68301;BME280;55146;47.468;18.806;2023-02-28T04:06:35;101167.28;;;1.57;69.05
68301;BME280;55146;47.468;18.806;2023-02-28T04:09:02;101161.47;;;1.60;69.19
68301;BME280;55146;47.468;18.806;2023-02-28T04:14:01;101157.97;;;1.60;69.59
68301;BME280;55146;47.468;18.806;2023-02-28T04:16:27;101157.09;;;1.59;69.86
68301;BME280;55146;47.468;18.806;2023-02-28T04:18:53;101153.56;;;1.59;70.24
68301;BME280;55146;47.468;18.806;2023-02-28T04:21:18;101156.06;;;1.60;70.62
68301;BME280;55146;47.468;18.806;2023-02-28T04:23:47;101163.16;;;1.61;71.06
68301;BME280;55146;47.468;18.806;2023-02-28T04:26:12;101158.97;;;1.59;71.10
68301;BME280;55146;47.468;18.806;2023-02-28T04:28:38;101159.81;;;1.59;70.87
68301;BME280;55146;47.468;18.806;2023-02-28T04:31:04;101154.19;;;1.61;70.44
68301;BME280;55146;47.468;18.806;2023-02-28T04:33:31;101159.34;;;1.56;70.50
68301;BME280;55146;47.468;18.806;2023-02-28T04:36:01;101150.38;;;1.55;70.58
68301;BME280;55146;47.468;18.806;2023-02-28T04:38:28;101153.91;;;1.56;70.48
68301;BME280;55146;47.468;18.806;2023-02-28T04:40:53;101150.62;;;1.60;70.32
68301;BME280;55146;47.468;18.806;2023-02-28T04:43:19;101148.41;;;1.64;69.84
68301;BME280;55146;47.468;18.806;2023-02-28T04:45:44;101152.13;;;1.63;69.63
68301;BME280;55146;47.468;18.806;2023-02-28T04:48:09;101152.97;;;1.63;69.40
68301;BME280;55146;47.468;18.806;2023-02-28T04:50:35;101152.63;;;1.67;69.75
68301;BME280;55146;47.468;18.806;2023-02-28T04:53:00;101157.62;;;1.70;69.62
68301;BME280;55146;47.468;18.806;2023-02-28T04:55:25;101156.13;;;1.67;69.25
68301;BME280;55146;47.468;18.806;2023-02-28T04:57:50;101155.69;;;1.63;69.60
68301;BME280;55146;47.468;18.806;2023-02-28T05:00:16;101154.84;;;1.63;69.67
68301;BME280;55146;47.468;18.806;2023-02-28T05:02:42;101153.75;;;1.57;69.98
68301;BME280;55146;47.468;18.806;2023-02-28T05:05:08;101152.91;;;1.57;68.90
68301;BME280;55146;47.468;18.806;2023-02-28T05:07:33;101155.78;;;1.55;68.91
68301;BME280;55146;47.468;18.806;2023-02-28T05:09:59;101157.97;;;1.60;70.00
68301;BME280;55146;47.468;18.806;2023-02-28T05:12:25;101159.69;;;1.68;70.01
68301;BME280;55146;47.468;18.806;2023-02-28T05:14:50;101159.16;;;1.72;70.32
68301;BME280;55146;47.468;18.806;2023-02-28T05:17:15;101158.31;;;1.72;70.24
68301;BME280;55146;47.468;18.806;2023-02-28T05:19:41;101162.47;;;1.74;70.41
68301;BME280;55146;47.468;18.806;2023-02-28T05:22:13;101166.03;;;1.75;70.21
68301;BME280;55146;47.468;18.806;2023-02-28T05:24:39;101165.78;;;1.70;69.19
68301;BME280;55146;47.468;18.806;2023-02-28T05:27:05;101165.13;;;1.68;69.74
68301;BME280;55146;47.468;18.806;2023-02-28T05:29:30;101174.75;;;1.70;69.93
68301;BME280;55146;47.468;18.806;2023-02-28T05:31:55;101171.66;;;1.73;69.80
68301;BME280;55146;47.468;18.806;2023-02-28T05:34:21;101179.41;;;1.76;69.79
68301;BME280;55146;47.468;18.806;2023-02-28T05:36:46;101175.69;;;1.77;70.20
68301;BME280;55146;47.468;18.806;2023-02-28T05:39:11;101177.16;;;1.80;70.38
68301;BME280;55146;47.468;18.806;2023-02-28T05:41:41;101180.62;;;1.74;70.50
68301;BME280;55146;47.468;18.806;2023-02-28T05:44:07;101177.06;;;1.73;70.56
68301;BME280;55146;47.468;18.806;2023-02-28T05:46:33;101184.84;;;1.76;70.40
68301;BME280;55146;47.468;18.806;2023-02-28T05:48:58;101178.22;;;1.79;70.85
68301;BME280;55146;47.468;18.806;2023-02-28T05:51:25;101184.91;;;1.83;71.03
68301;BME280;55146;47.468;18.806;2023-02-28T05:53:51;101180.34;;;1.83;70.93
68301;BME280;55146;47.468;18.806;2023-02-28T05:56:16;101195.28;;;1.79;70.33
68301;BME280;55146;47.468;18.806;2023-02-28T05:58:41;101194.47;;;1.79;70.06
68301;BME280;55146;47.468;18.806;2023-02-28T06:03:49;101201.56;;;1.80;69.73
68301;BME280;55146;47.468;18.806;2023-02-28T06:06:15;101197.66;;;1.82;69.93
68301;BME280;55146;47.468;18.806;2023-02-28T06:08:40;101207.06;;;1.86;70.01
68301;BME280;55146;47.468;18.806;2023-02-28T06:11:05;101194.16;;;1.88;70.65
68301;BME280;55146;47.468;18.806;2023-02-28T06:13:31;101203.22;;;1.95;70.71
68301;BME280;55146;47.468;18.806;2023-02-28T06:16:00;101194.06;;;1.96;70.86
68301;BME280;55146;47.468;18.806;2023-02-28T06:18:26;101200.97;;;1.99;70.88
68301;BME280;55146;47.468;18.806;2023-02-28T06:20:54;101205.34;;;2.00;69.90
68301;BME280;55146;47.468;18.806;2023-02-28T06:25:55;101193.09;;;2.04;67.93
68301;BME280;55146;47.468;18.806;2023-02-28T06:28:24;101205.00;;;2.03;67.65
68301;BME280;55146;47.468;18.806;2023-02-28T06:30:49;101210.69;;;2.08;67.34
68301;BME280;55146;47.468;18.806;2023-02-28T06:33:15;101211.53;;;2.09;67.71
68301;BME280;55146;47.468;18.806;2023-02-28T06:35:43;101215.09;;;2.09;67.99
68301;BME280;55146;47.468;18.806;2023-02-28T06:38:09;101212.63;;;2.14;67.99
68301;BME280;55146;47.468;18.806;2023-02-28T06:40:35;101209.06;;;2.14;67.92
68301;BME280;55146;47.468;18.806;2023-02-28T06:43:01;101215.16;;;2.16;67.65
68301;BME280;55146;47.468;18.806;2023-02-28T06:45:27;101218.75;;;2.23;66.71
68301;BME280;55146;47.468;18.806;2023-02-28T06:47:52;101219.50;;;2.31;66.25
68301;BME280;55146;47.468;18.806;2023-02-28T06:50:18;101216.19;;;2.36;65.25
68301;BME280;55146;47.468;18.806;2023-02-28T06:52:44;101216.19;;;2.36;65.51
68301;BME280;55146;47.468;18.806;2023-02-28T06:55:10;101218.12;;;2.42;65.28
68301;BME280;55146;47.468;18.806;2023-02-28T06:57:36;101223.37;;;2.43;64.85
68301;BME280;55146;47.468;18.806;2023-02-28T07:00:07;101217.75;;;2.45;64.81
68301;BME280;55146;47.468;18.806;2023-02-28T07:02:36;101227.38;;;2.48;64.24
68301;BME280;55146;47.468;18.806;2023-02-28T07:05:03;101223.19;;;2.45;64.51
68301;BME280;55146;47.468;18.806;2023-02-28T07:07:29;101219.22;;;2.48;64.27
68301;BME280;55146;47.468;18.806;2023-02-28T07:09:54;101226.94;;;2.44;64.62
68301;BME280;55146;47.468;18.806;2023-02-28T07:12:20;101231.97;;;2.47;64.07
68301;BME280;55146;47.468;18.806;2023-02-28T07:14:46;101224.03;;;2.46;64.83
68301;BME280;55146;47.468;18.806;2023-02-28T07:17:11;101229.84;;;2.42;64.86
68301;BME280;55146;47.468;18.806;2023-02-28T07:19:38;101232.03;;;2.54;63.96
68301;BME280;55146;47.468;18.806;2023-02-28T07:22:04;101234.13;;;2.52;65.82
68301;BME280;55146;47.468;18.806;2023-02-28T07:24:29;101227.13;;;2.64;65.29
68301;BME280;55146;47.468;18.806;2023-02-28T07:26:55;101231.62;;;2.78;63.89
68301;BME280;55146;47.468;18.806;2023-02-28T07:29:21;101237.00;;;2.93;63.39
68301;BME280;55146;47.468;18.806;2023-02-28T07:31:46;101245.91;;;3.08;62.29
68301;BME280;55146;47.468;18.806;2023-02-28T07:34:13;101240.72;;;3.47;60.50
68301;BME280;55146;47.468;18.806;2023-02-28T07:36:38;101241.06;;;4.13;59.17
68301;BME280;55146;47.468;18.806;2023-02-28T07:39:03;101243.44;;;4.42;56.56
68301;BME280;55146;47.468;18.806;2023-02-28T07:41:34;101241.97;;;4.40;55.01
68301;BME280;55146;47.468;18.806;2023-02-28T07:44:02;101243.06;;;4.65;55.14
68301;BME280;55146;47.468;18.806;2023-02-28T07:46:28;101249.81;;;5.09;53.10
68301;BME280;55146;47.468;18.806;2023-02-28T07:49:00;101244.75;;;5.25;53.50
68301;BME280;55146;47.468;18.806;2023-02-28T07:51:26;101244.31;;;5.48;51.11
68301;BME280;55146;47.468;18.806;2023-02-28T07:53:51;101248.28;;;5.59;51.15
68301;BME280;55146;47.468;18.806;2023-02-28T07:56:17;101243.13;;;6.02;49.24
68301;BME280;55146;47.468;18.806;2023-02-28T07:58:42;101241.47;;;5.94;51.67
68301;BME280;55146;47.468;18.806;2023-02-28T08:01:09;101241.94;;;5.91;50.34
68301;BME280;55146;47.468;18.806;2023-02-28T08:03:35;101239.69;;;6.20;48.77
68301;BME280;55146;47.468;18.806;2023-02-28T08:06:03;101235.91;;;6.59;46.65
68301;BME280;55146;47.468;18.806;2023-02-28T08:08:29;101235.44;;;6.93;48.05
68301;BME280;55146;47.468;18.806;2023-02-28T08:11:01;101238.28;;;7.05;44.09
68301;BME280;55146;47.468;18.806;2023-02-28T08:13:27;101236.34;;;7.12;44.59
68301;BME280;55146;47.468;18.806;2023-02-28T08:15:54;101228.69;;;7.20;43.91
68301;BME280;55146;47.468;18.806;2023-02-28T08:18:20;101235.53;;;7.29;45.08
68301;BME280;55146;47.468;18.806;2023-02-28T08:20:45;101233.37;;;7.13;44.15
68301;BME280;55146;47.468;18.806;2023-02-28T08:23:11;101230.75;;;7.00;44.35
68301;BME280;55146;47.468;18.806;2023-02-28T08:25:37;101236.78;;;7.09;45.38
68301;BME280;55146;47.468;18.806;2023-02-28T08:28:02;101228.12;;;7.12;46.12
68301;BME280;55146;47.468;18.806;2023-02-28T08:30:27;101225.50;;;6.99;43.74
68301;BME280;55146;47.468;18.806;2023-02-28T08:32:53;101218.84;;;7.13;45.75
68301;BME280;55146;47.468;18.806;2023-02-28T08:35:19;101226.78;;;7.21;44.89
68301;BME280;55146;47.468;18.806;2023-02-28T08:37:47;101217.78;;;7.39;44.59
68301;BME280;55146;47.468;18.806;2023-02-28T08:40:13;101225.03;;;7.51;42.32
68301;BME280;55146;47.468;18.806;2023-02-28T08:42:45;101218.56;;;7.64;43.81
68301;BME280;55146;47.468;18.806;2023-02-28T08:45:11;101226.16;;;7.62;43.34
68301;BME280;55146;47.468;18.806;2023-02-28T08:47:37;101222.72;;;7.85;43.28
68301;BME280;55146;47.468;18.806;2023-02-28T08:50:04;101221.16;;;7.95;42.60
68301;BME280;55146;47.468;18.806;2023-02-28T08:52:30;101229.03;;;8.03;42.62
68301;BME280;55146;47.468;18.806;2023-02-28T08:54:55;101221.06;;;8.20;42.06
68301;BME280;55146;47.468;18.806;2023-02-28T08:57:20;101213.28;;;8.17;42.22
68301;BME280;55146;47.468;18.806;2023-02-28T08:59:46;101216.00;;;8.17;42.52
68301;BME280;55146;47.468;18.806;2023-02-28T09:02:13;101214.59;;;8.33;42.43
68301;BME280;55146;47.468;18.806;2023-02-28T09:04:40;101219.87;;;8.28;41.02
68301;BME280;55146;47.468;18.806;2023-02-28T09:07:05;101224.84;;;8.37;43.00
68301;BME280;55146;47.468;18.806;2023-02-28T09:09:30;101217.63;;;8.55;41.41
68301;BME280;55146;47.468;18.806;2023-02-28T09:11:56;101217.06;;;8.64;42.09
68301;BME280;55146;47.468;18.806;2023-02-28T09:14:22;101222.84;;;8.86;42.30
68301;BME280;55146;47.468;18.806;2023-02-28T09:16:47;101213.78;;;8.97;41.70
68301;BME280;55146;47.468;18.806;2023-02-28T09:19:13;101212.59;;;8.93;40.33
68301;BME280;55146;47.468;18.806;2023-02-28T09:21:38;101213.91;;;9.02;40.70
68301;BME280;55146;47.468;18.806;2023-02-28T09:24:04;101219.19;;;9.15;38.57
68301;BME280;55146;47.468;18.806;2023-02-28T09:26:29;101220.97;;;9.21;39.77
68301;BME280;55146;47.468;18.806;2023-02-28T09:28:55;101217.28;;;9.27;39.91
68301;BME280;55146;47.468;18.806;2023-02-28T09:31:25;101215.75;;;9.43;40.59
68301;BME280;55146;47.468;18.806;2023-02-28T09:33:53;101211.53;;;9.52;38.35
68301;BME280;55146;47.468;18.806;2023-02-28T09:36:19;101223.00;;;9.61;38.86
68301;BME280;55146;47.468;18.806;2023-02-28T09:38:45;101222.44;;;9.36;38.55
68301;BME280;55146;47.468;18.806;2023-02-28T09:41:38;101223.19;;;8.78;38.95
68301;BME280;55146;47.468;18.806;2023-02-28T09:44:16;101233.56;;;8.46;39.32
68301;BME280;55146;47.468;18.806;2023-02-28T09:46:45;101226.25;;;8.40;41.27
68301;BME280;55146;47.468;18.806;2023-02-28T09:49:16;101222.47;;;8.23;40.67
68301;BME280;55146;47.468;18.806;2023-02-28T09:54:23;101216.25;;;7.97;41.37
68301;BME280;55146;47.468;18.806;2023-02-28T09:57:01;101224.47;;;7.97;41.88
68301;BME280;55146;47.468;18.806;2023-02-28T09:59:41;101219.22;;;8.14;42.10
68301;BME280;55146;47.468;18.806;2023-02-28T10:04:50;101213.78;;;8.85;40.21
68301;BME280;55146;47.468;18.806;2023-02-28T10:12:59;101200.41;;;8.89;39.35
68301;BME280;55146;47.468;18.806;2023-02-28T10:15:29;101196.16;;;9.05;39.10
68301;BME280;55146;47.468;18.806;2023-02-28T10:18:05;101203.22;;;9.24;38.71
68301;BME280;55146;47.468;18.806;2023-02-28T10:20:37;101194.84;;;9.19;38.57
68301;BME280;55146;47.468;18.806;2023-02-28T10:25:38;101197.09;;;9.68;39.45
68301;BME280;55146;47.468;18.806;2023-02-28T10:28:12;101186.50;;;9.89;39.79
68301;BME280;55146;47.468;18.806;2023-02-28T10:30:43;101186.69;;;10.22;42.03
68301;BME280;55146;47.468;18.806;2023-02-28T10:35:43;101179.37;;;10.73;39.33
68301;BME280;55146;47.468;18.806;2023-02-28T10:38:16;101180.38;;;11.00;38.93
68301;BME280;55146;47.468;18.806;2023-02-28T10:40:42;101176.28;;;11.19;37.73
68301;BME280;55146;47.468;18.806;2023-02-28T10:45:40;101162.63;;;11.46;36.38
68301;BME280;55146;47.468;18.806;2023-02-28T10:58:58;101160.66;;;11.25;34.69
68301;BME280;55146;47.468;18.806;2023-02-28T11:03:56;101162.00;;;10.55;37.41
68301;BME280;55146;47.468;18.806;2023-02-28T11:06:32;101154.09;;;10.31;35.84
68301;BME280;55146;47.468;18.806;2023-02-28T11:09:00;101149.81;;;9.95;36.67
68301;BME280;55146;47.468;18.806;2023-02-28T11:11:29;101151.19;;;9.69;37.42
68301;BME280;55146;47.468;18.806;2023-02-28T11:14:02;101146.94;;;9.61;38.51
68301;BME280;55146;47.468;18.806;2023-02-28T11:16:37;101155.50;;;9.65;38.53
68301;BME280;55146;47.468;18.806;2023-02-28T11:19:06;101148.72;;;9.67;38.55
68301;BME280;55146;47.468;18.806;2023-02-28T11:21:34;101150.25;;;9.63;38.75
68301;BME280;55146;47.468;18.806;2023-02-28T11:24:27;101144.91;;;9.97;37.51
68301;BME280;55146;47.468;18.806;2023-02-28T11:26:54;101143.16;;;10.19;37.25
68301;BME280;55146;47.468;18.806;2023-02-28T11:29:31;101146.13;;;10.29;36.94
68301;BME280;55146;47.468;18.806;2023-02-28T11:34:42;101147.12;;;10.40;36.73
68301;BME280;55146;47.468;18.806;2023-02-28T11:37:20;101140.94;;;10.61;38.28
68301;BME280;55146;47.468;18.806;2023-02-28T11:39:46;101138.34;;;10.88;38.06
68301;BME280;55146;47.468;18.806;2023-02-28T11:42:28;101139.75;;;10.90;37.64
68301;BME280;55146;47.468;18.806;2023-02-28T11:55:49;101125.37;;;11.82;34.48
68301;BME280;55146;47.468;18.806;2023-02-28T12:06:50;101116.84;;;11.84;35.53
68301;BME280;55146;47.468;18.806;2023-02-28T12:31:37;101088.81;;;11.70;35.89
68301;BME280;55146;47.468;18.806;2023-02-28T12:34:10;101083.75;;;11.62;35.97
68301;BME280;55146;47.468;18.806;2023-02-28T12:36:37;101081.44;;;11.32;35.71
68301;BME280;55146;47.468;18.806;2023-02-28T12:39:16;101082.62;;;10.64;37.38
68301;BME280;55146;47.468;18.806;2023-02-28T12:46:51;101080.38;;;9.71;39.06
68301;BME280;55146;47.468;18.806;2023-02-28T12:52:11;101085.72;;;9.78;39.24
68301;BME280;55146;47.468;18.806;2023-02-28T12:57:55;101081.94;;;9.67;39.00
68301;BME280;55146;47.468;18.806;2023-02-28T13:00:25;101070.28;;;9.48;39.28
68301;BME280;55146;47.468;18.806;2023-02-28T13:08:52;101062.12;;;9.65;38.95
68301;BME280;55146;47.468;18.806;2023-02-28T13:11:30;101058.59;;;9.41;40.00
68301;BME280;55146;47.468;18.806;2023-02-28T13:14:02;101063.63;;;9.44;40.75
68301;BME280;55146;47.468;18.806;2023-02-28T13:16:57;101061.88;;;9.15;40.21
68301;BME280;55146;47.468;18.806;2023-02-28T13:19:26;101067.97;;;9.17;40.95
68301;BME280;55146;47.468;18.806;2023-02-28T13:21:53;101059.97;;;9.15;40.44
68301;BME280;55146;47.468;18.806;2023-02-28T13:24:49;101045.53;;;9.31;40.20
68301;BME280;55146;47.468;18.806;2023-02-28T13:29:54;101049.84;;;9.04;40.55
68301;BME280;55146;47.468;18.806;2023-02-28T13:39:46;101043.44;;;9.39;40.72
68301;BME280;55146;47.468;18.806;2023-02-28T13:42:36;101047.59;;;9.53;40.73
68301;BME280;55146;47.468;18.806;2023-02-28T14:06:33;101038.59;;;9.57;41.73
68301;BME280;55146;47.468;18.806;2023-02-28T14:09:19;101032.22;;;9.40;40.69
68301;BME280;55146;47.468;18.806;2023-02-28T14:11:48;101037.06;;;9.10;41.13
68301;BME280;55146;47.468;18.806;2023-02-28T14:17:07;101031.66;;;8.63;42.26
68301;BME280;55146;47.468;18.806;2023-02-28T14:19:36;101028.75;;;8.46;42.88
68301;BME280;55146;47.468;18.806;2023-02-28T14:30:03;101033.03;;;7.78;44.30
68301;BME280;55146;47.468;18.806;2023-02-28T14:38:04;101027.91;;;7.81;44.70
68301;BME280;55146;47.468;18.806;2023-02-28T14:40:33;101025.28;;;7.86;44.86
68301;BME280;55146;47.468;18.806;2023-02-28T14:43:05;101020.22;;;7.71;44.54
68301;BME280;55146;47.468;18.806;2023-02-28T14:45:32;101023.06;;;7.95;45.32
68301;BME280;55146;47.468;18.806;2023-02-28T14:48:00;101024.47;;;7.97;45.31
68301;BME280;55146;47.468;18.806;2023-02-28T14:50:30;101023.09;;;8.06;44.54
68301;BME280;55146;47.468;18.806;2023-02-28T14:52:56;101031.00;;;7.85;45.04
68301;BME280;55146;47.468;18.806;2023-02-28T14:55:44;101024.13;;;7.94;45.17
68301;BME280;55146;47.468;18.806;2023-02-28T14:58:32;101027.97;;;8.04;44.93
68301;BME280;55146;47.468;18.806;2023-02-28T15:01:00;101030.97;;;8.15;45.14
68301;BME280;55146;47.468;18.806;2023-02-28T15:03:34;101028.25;;;8.26;44.49
68301;BME280;55146;47.468;18.806;2023-02-28T15:06:01;101023.06;;;7.95;44.85
68301;BME280;55146;47.468;18.806;2023-02-28T15:08:27;101035.44;;;7.97;44.59
68301;BME280;55146;47.468;18.806;2023-02-28T15:11:18;101027.78;;;7.76;44.97
68301;BME280;55146;47.468;18.806;2023-02-28T15:13:46;101035.00;;;7.70;44.92
68301;BME280;55146;47.468;18.806;2023-02-28T15:18:44;101033.03;;;7.59;45.38
68301;BME280;55146;47.468;18.806;2023-02-28T15:21:15;101032.59;;;7.62;46.03
68301;BME280;55146;47.468;18.806;2023-02-28T15:23:45;101042.75;;;7.73;46.11
68301;BME280;55146;47.468;18.806;2023-02-28T15:26:16;101026.53;;;7.72;46.69
68301;BME280;55146;47.468;18.806;2023-02-28T15:28:45;101041.16;;;7.66;47.22
68301;BME280;55146;47.468;18.806;2023-02-28T15:31:21;101031.44;;;7.40;47.25
68301;BME280;55146;47.468;18.806;2023-02-28T15:33:56;101027.25;;;7.38;46.78
68301;BME280;55146;47.468;18.806;2023-02-28T15:36:25;101026.22;;;7.50;46.71
68301;BME280;55146;47.468;18.806;2023-02-28T15:38:53;101036.66;;;7.42;46.50
68301;BME280;55146;47.468;18.806;2023-02-28T15:41:36;101031.34;;;7.28;47.21
68301;BME280;55146;47.468;18.806;2023-02-28T15:44:25;101031.88;;;7.37;48.08
68301;BME280;55146;47.468;18.806;2023-02-28T15:47:00;101031.78;;;7.44;47.27
68301;BME280;55146;47.468;18.806;2023-02-28T15:49:27;101023.44;;;7.39;47.03
68301;BME280;55146;47.468;18.806;2023-02-28T15:51:55;101027.59;;;7.41;47.00
68301;BME280;55146;47.468;18.806;2023-02-28T15:54:26;101025.34;;;7.38;47.44
68301;BME280;55146;47.468;18.806;2023-02-28T15:56:55;101023.66;;;7.37;47.95
68301;BME280;55146;47.468;18.806;2023-02-28T15:59:27;101027.25;;;7.38;47.37
68301;BME280;55146;47.468;18.806;2023-02-28T16:04:35;101023.53;;;7.32;47.58
68301;BME280;55146;47.468;18.806;2023-02-28T16:07:05;101026.97;;;7.27;47.44